Time;durP1;ratioP1;P1;durP2;ratioP2;P2;SDS_P1;SDS_P2;PMS_P1;PMS_P2;Temp;Humidity;BMP_temperature;BMP_pressure;BME280_temperature;BME280_humidity;BME280_pressure;Samples;Min_cycle;Max_cycle;Signal;HPM_P1;HPM_P2
2022/06/29 00:00:11;;;;;;;7.25;3.63;;;;;;;17.05;89.40;94943.28;5090549;28;20301;-73
2022/06/29 00:02:38;;;;;;;7.15;3.30;;;;;;;17.05;89.64;94943.28;5089864;28;20227;-73
2022/06/29 00:05:06;;;;;;;7.57;3.78;;;;;;;17.11;89.40;94952.00;5090568;28;20222;-73
2022/06/29 00:07:33;;;;;;;5.07;3.30;;;;;;;17.01;89.01;94965.13;5090972;28;20237;-73
2022/06/29 00:10:02;;;;;;;5.70;4.20;;;;;;;17.05;89.23;94965.19;5090563;28;20206;-74
2022/06/29 00:12:29;;;;;;;6.38;4.30;;;;;;;17.13;88.60;94960.63;5090927;28;20218;-72
2022/06/29 00:14:56;;;;;;;6.63;4.15;;;;;;;17.15;88.52;94948.19;5090611;28;20195;-74
2022/06/29 00:17:23;;;;;;;6.35;4.03;;;;;;;17.22;88.23;94953.03;5090768;28;20736;-72
2022/06/29 00:19:51;;;;;;;8.57;4.30;;;;;;;17.20;88.13;94952.59;5090550;28;20708;-72
2022/06/29 00:22:17;;;;;;;5.30;3.85;;;;;;;17.04;88.45;94958.13;5090913;28;20263;-74
2022/06/29 00:24:44;;;;;;;6.10;4.25;;;;;;;17.11;88.80;94957.47;5089949;28;20279;-73
2022/06/29 00:27:13;;;;;;;7.38;4.43;;;;;;;17.16;88.75;94948.97;5090824;28;20244;-73
2022/06/29 00:29:39;;;;;;;6.55;4.18;;;;;;;17.12;88.61;94948.09;5090608;28;20275;-74
2022/06/29 00:32:07;;;;;;;6.35;3.90;;;;;;;17.11;88.33;94947.31;5090804;28;20233;-74
2022/06/29 00:34:34;;;;;;;7.47;4.30;;;;;;;17.07;88.13;94946.47;5089190;28;20259;-74
2022/06/29 00:37:01;;;;;;;7.85;4.70;;;;;;;17.02;88.13;94942.06;5090412;28;20271;-75
2022/06/29 00:39:28;;;;;;;6.28;4.22;;;;;;;17.02;88.17;94950.28;5090674;28;20226;-74
2022/06/29 00:41:55;;;;;;;7.05;4.22;;;;;;;17.02;88.33;94944.81;5090719;28;20267;-74
2022/06/29 00:44:23;;;;;;;5.75;4.03;;;;;;;16.99;88.32;94945.50;5091911;28;20201;-74
2022/06/29 00:46:53;;;;;;;6.50;3.88;;;;;;;16.96;88.68;94929.00;5094860;28;20202;-74
2022/06/29 00:49:21;;;;;;;7.15;4.20;;;;;;;16.94;88.61;94939.56;5094769;28;20283;-74
2022/06/29 00:51:50;;;;;;;5.55;3.75;;;;;;;17.07;88.13;94941.00;5094570;28;20218;-74
2022/06/29 00:54:20;;;;;;;7.32;3.95;;;;;;;16.96;89.41;94940.75;5093606;28;20635;-74
2022/06/29 00:56:47;;;;;;;5.53;3.92;;;;;;;16.78;90.41;94934.16;5094035;28;20283;-74
2022/06/29 00:59:19;;;;;;;7.22;4.13;;;;;;;16.67;91.40;94933.13;5094066;28;20222;-73
2022/06/29 01:01:47;;;;;;;6.32;4.30;;;;;;;16.70;91.51;94929.66;5094772;28;20222;-74
2022/06/29 01:04:14;;;;;;;7.15;4.63;;;;;;;16.72;91.69;94929.31;5093212;28;20765;-74
2022/06/29 01:06:41;;;;;;;8.27;4.40;;;;;;;16.72;91.87;94930.09;5094245;28;20228;-74
2022/06/29 01:09:08;;;;;;;7.18;4.68;;;;;;;16.72;91.29;94938.31;5094545;28;20568;-74
2022/06/29 01:11:35;;;;;;;7.28;4.47;;;;;;;16.71;91.10;94928.50;5094354;28;20222;-74
2022/06/29 01:14:03;;;;;;;6.55;4.50;;;;;;;16.54;91.55;94923.41;5093656;28;20221;-74
2022/06/29 01:16:30;;;;;;;6.63;4.07;;;;;;;16.48;91.48;94930.34;5094033;28;20279;-74
2022/06/29 01:18:58;;;;;;;8.35;4.15;;;;;;;16.50;91.66;94917.09;5080682;28;20228;-74
2022/06/29 01:21:30;;;;;;;9.80;5.10;;;;;;;16.55;91.29;94909.38;5094226;28;20198;-74
2022/06/29 01:23:58;;;;;;;6.10;4.25;;;;;;;16.66;90.63;94913.19;5093590;28;20179;-74
2022/06/29 01:26:25;;;;;;;5.97;4.18;;;;;;;16.64;89.95;94906.50;5093460;28;20241;-74
2022/06/29 01:28:52;;;;;;;6.32;4.43;;;;;;;16.72;89.55;94918.34;5093397;28;20225;-74
2022/06/29 01:31:20;;;;;;;4.75;3.42;;;;;;;16.53;90.42;94914.44;5093397;28;20279;-74
2022/06/29 01:33:48;;;;;;;7.68;4.05;;;;;;;16.57;90.96;94911.75;5092583;28;20275;-74
2022/06/29 01:36:16;;;;;;;7.18;4.43;;;;;;;16.67;91.40;94919.44;5092986;28;20568;-74
2022/06/29 01:38:44;;;;;;;8.45;4.07;;;;;;;16.69;91.21;94928.06;5093659;28;20256;-74
2022/06/29 01:41:13;;;;;;;6.35;4.05;;;;;;;16.68;91.00;94929.22;5090267;28;20209;-74
2022/06/29 01:43:40;;;;;;;6.50;3.97;;;;;;;16.67;91.02;94924.94;5083705;28;20665;-74
2022/06/29 01:46:07;;;;;;;9.65;4.82;;;;;;;16.68;90.92;94929.22;5093566;28;20256;-74
2022/06/29 01:48:34;;;;;;;6.45;4.43;;;;;;;16.70;91.11;94926.91;5093599;28;20226;-74
2022/06/29 01:51:01;;;;;;;5.25;3.80;;;;;;;16.67;90.82;94927.66;5093853;28;20219;-74
2022/06/29 01:53:28;;;;;;;6.55;3.72;;;;;;;16.66;90.86;94917.88;5092951;28;20230;-74
2022/06/29 01:55:55;;;;;;;7.05;3.80;;;;;;;16.61;90.78;94909.91;5092482;28;20218;-74
2022/06/29 01:58:24;;;;;;;4.45;3.28;;;;;;;16.53;90.37;94906.25;5093176;28;20222;-74
2022/06/29 02:00:51;;;;;;;4.95;3.33;;;;;;;16.52;90.19;94914.81;5093117;28;20656;-74
2022/06/29 02:03:18;;;;;;;4.82;3.35;;;;;;;16.45;90.08;94909.16;5093155;28;20227;-74
2022/06/29 02:05:45;;;;;;;5.18;3.15;;;;;;;16.50;89.98;94908.88;5092894;28;20245;-74
2022/06/29 02:08:11;;;;;;;5.38;3.55;;;;;;;16.39;90.31;94908.66;5092405;28;20268;-74
2022/06/29 02:10:38;;;;;;;7.45;3.47;;;;;;;16.45;90.58;94909.16;5093186;28;20206;-74
2022/06/29 02:13:05;;;;;;;4.72;3.65;;;;;;;16.56;89.86;94901.97;5093148;28;20222;-74
2022/06/29 02:15:34;;;;;;;7.38;4.18;;;;;;;16.53;90.84;94899.97;5092622;28;20198;-74
2022/06/29 02:18:02;;;;;;;8.45;5.65;;;;;;;16.54;91.31;94896.06;5092625;28;20218;-74
2022/06/29 02:20:29;;;;;;;5.93;4.63;;;;;;;16.55;91.59;94897.66;5092890;28;20226;-74
2022/06/29 02:22:56;;;;;;;6.03;4.05;;;;;;;16.41;91.95;94897.34;5092892;28;20319;-74
2022/06/29 02:25:23;;;;;;;6.07;4.30;;;;;;;16.33;92.23;94890.94;5092227;28;20226;-74
2022/06/29 02:27:49;;;;;;;6.10;4.30;;;;;;;16.29;92.31;94885.38;5092997;28;20230;-74
2022/06/29 02:30:17;;;;;;;7.07;3.80;;;;;;;16.33;92.19;94901.88;5092436;28;20222;-74
2022/06/29 02:35:31;;;;;;;7.60;3.75;;;;;;;16.30;91.52;94881.50;5092108;28;20237;-74
2022/06/29 02:37:58;;;;;;;7.85;4.20;;;;;;;16.35;91.50;94885.91;5091742;28;20210;-74
2022/06/29 02:40:25;;;;;;;6.10;3.72;;;;;;;16.18;91.93;94883.56;5092490;28;20232;-74
2022/06/29 02:42:52;;;;;;;6.35;4.00;;;;;;;16.01;92.76;94879.28;5086218;28;20218;-74
2022/06/29 02:45:18;;;;;;;8.48;4.22;;;;;;;15.94;93.46;94870.94;5091794;28;20203;-74
2022/06/29 02:47:47;;;;;;;6.30;3.83;;;;;;;15.88;93.52;94872.34;5092616;28;20263;-74
2022/06/29 02:50:13;;;;;;;11.82;4.10;;;;;;;15.73;94.41;94875.88;5092426;28;20233;-74
2022/06/29 02:52:40;;;;;;;9.73;3.97;;;;;;;15.89;93.78;94871.19;5092427;28;20206;-74
2022/06/29 02:55:08;;;;;;;6.13;3.53;;;;;;;15.97;92.96;94879.22;5091541;28;20701;-74
2022/06/29 02:57:34;;;;;;;5.05;3.95;;;;;;;16.05;91.57;94874.69;5092233;28;20263;-74
2022/06/29 03:00:01;;;;;;;6.10;3.42;;;;;;;16.14;90.59;94872.56;5092233;28;20202;-74
2022/06/29 03:02:28;;;;;;;4.68;3.33;;;;;;;16.32;90.08;94873.75;5091395;28;20584;-74
2022/06/29 03:04:56;;;;;;;7.30;3.95;;;;;;;16.50;89.40;94879.59;5091672;28;20661;-72
2022/06/29 03:07:23;;;;;;;4.15;3.30;;;;;;;16.74;88.96;94870.34;5091010;28;20215;-74
2022/06/29 03:09:50;;;;;;;9.07;4.22;;;;;;;17.10;88.03;94871.03;5091547;28;20558;-74
2022/06/29 03:12:17;;;;;;;5.43;3.65;;;;;;;17.49;85.27;94869.78;5091167;28;20252;-74
2022/06/29 03:14:43;;;;;;;7.47;4.13;;;;;;;17.74;84.51;94859.28;5090947;28;20222;-74
2022/06/29 03:17:10;;;;;;;7.43;3.92;;;;;;;18.64;81.82;94867.63;5091198;28;20781;-74
2022/06/29 03:19:37;;;;;;;5.60;4.00;;;;;;;19.38;79.01;94868.47;5091644;28;20778;-73
2022/06/29 03:22:05;;;;;;;9.77;4.07;;;;;;;20.19;75.70;94857.38;5091261;28;20279;-74
2022/06/29 03:24:32;;;;;;;8.93;3.65;;;;;;;20.82;73.84;94858.91;5090772;28;20739;-74
2022/06/29 03:26:59;;;;;;;5.50;4.22;;;;;;;21.08;72.08;94857.84;5091523;28;20198;-74
2022/06/29 03:29:26;;;;;;;12.52;4.07;;;;;;;21.57;70.30;94861.94;5091132;28;20218;-74
2022/06/29 03:31:53;;;;;;;5.25;3.45;;;;;;;21.89;70.32;94854.44;5077547;28;20205;-73
2022/06/29 03:34:20;;;;;;;6.10;3.53;;;;;;;22.15;69.59;94853.25;5090897;28;20268;-74
2022/06/29 03:36:46;;;;;;;5.07;3.45;;;;;;;22.20;67.54;94844.59;5092004;28;20271;-74
2022/06/29 03:39:15;;;;;;;6.20;3.15;;;;;;;22.93;67.41;94836.53;5091050;28;20235;-74
2022/06/29 03:41:41;;;;;;;4.10;2.55;;;;;;;23.42;64.36;94839.41;5090686;28;20899;-74
2022/06/29 03:44:08;;;;;;;3.85;3.42;;;;;;;23.77;62.69;94843.97;5090201;28;20707;-73
2022/06/29 03:46:35;;;;;;;3.10;2.70;;;;;;;24.06;62.15;94848.84;5091711;28;20218;-72
2022/06/29 03:49:02;;;;;;;3.55;3.00;;;;;;;23.82;62.77;94852.59;5091271;28;20272;-73
2022/06/29 03:51:28;;;;;;;4.13;3.72;;;;;;;23.52;65.08;94844.13;5091204;28;20647;-72
2022/06/29 03:53:55;;;;;;;3.70;2.90;;;;;;;24.05;64.83;94844.50;5090727;28;20781;-74
2022/06/29 03:56:24;;;;;;;4.13;3.50;;;;;;;23.76;62.83;94845.94;5091339;28;20276;-74
2022/06/29 03:58:50;;;;;;;3.88;3.40;;;;;;;24.80;61.94;94832.69;5091002;28;20218;-74
2022/06/29 04:01:17;;;;;;;5.10;4.45;;;;;;;25.32;61.36;94829.69;5091014;28;20222;-75
2022/06/29 04:03:44;;;;;;;5.82;4.13;;;;;;;25.04;62.08;94836.38;5090651;28;20210;-77
2022/06/29 04:06:11;;;;;;;5.30;4.50;;;;;;;25.33;59.71;94828.47;5091459;28;20215;-76
2022/06/29 04:08:38;;;;;;;4.50;4.10;;;;;;;26.23;57.52;94817.59;5091004;28;20206;-76
2022/06/29 04:11:48;;;;;;;5.65;5.05;;;;;;;26.60;55.04;94822.88;5090804;28;20330;-77
2022/06/29 04:13:53;;;;;;;6.15;4.60;;;;;;;26.22;55.84;94824.34;5090222;28;20238;-76
2022/06/29 04:16:20;;;;;;;5.40;4.45;;;;;;;26.46;55.47;94823.16;5090728;28;20198;-79
2022/06/29 04:18:47;;;;;;;6.57;5.60;;;;;;;27.28;53.80;94821.53;5090189;28;20267;-76
2022/06/29 04:21:14;;;;;;;9.13;6.70;;;;;;;27.11;53.15;94815.13;5090651;28;20302;-74
2022/06/29 04:23:41;;;;;;;9.85;7.43;;;;;;;27.50;52.17;94820.63;5090012;28;20279;-74
2022/06/29 04:26:07;;;;;;;7.72;6.93;;;;;;;26.79;53.09;94819.31;5090276;28;20230;-74
2022/06/29 04:28:34;;;;;;;7.65;6.72;;;;;;;27.73;52.60;94818.97;5090600;28;20287;-74
2022/06/29 04:31:03;;;;;;;7.22;5.80;;;;;;;27.26;53.31;94819.19;5090567;28;20282;-74
2022/06/29 04:33:29;;;;;;;8.38;6.00;;;;;;;28.69;49.94;94811.00;5089886;28;20370;-74
2022/06/29 04:35:56;;;;;;;7.10;5.95;;;;;;;28.97;48.79;94805.41;5090180;28;20861;-74
2022/06/29 04:38:23;;;;;;;7.30;5.85;;;;;;;29.67;48.16;94796.16;5090659;28;20305;-74
2022/06/29 04:40:50;;;;;;;6.88;6.18;;;;;;;30.20;46.06;94793.69;5090855;28;20244;-74
2022/06/29 04:43:17;;;;;;;7.43;6.10;;;;;;;30.49;45.62;94798.25;5083387;28;20222;-74
2022/06/29 04:48:29;;;;;;;12.30;7.20;;;;;;;29.98;44.62;94804.75;5090560;28;20196;-74
2022/06/29 04:50:56;;;;;;;7.13;6.07;;;;;;;29.08;46.88;94815.50;5090194;28;20720;-74
2022/06/29 04:53:23;;;;;;;7.85;6.95;;;;;;;28.35;48.08;94817.06;5090060;28;20218;-73
2022/06/29 04:55:50;;;;;;;7.65;6.53;;;;;;;26.33;54.21;94824.97;5090213;28;20226;-73
2022/06/29 04:58:17;;;;;;;7.90;7.00;;;;;;;27.25;51.69;94823.97;5080349;28;20304;-74
2022/06/29 05:00:43;;;;;;;10.90;7.20;;;;;;;26.30;53.75;94826.59;5087636;28;20339;-75
2022/06/29 05:03:10;;;;;;;8.75;6.93;;;;;;;27.11;52.50;94832.63;5090389;28;20222;-75
2022/06/29 05:05:38;;;;;;;10.30;7.00;;;;;;;28.27;50.02;94836.75;5089860;28;20199;-74
2022/06/29 05:08:06;;;;;;;9.07;7.60;;;;;;;29.85;46.09;94833.91;5090533;28;20225;-75
2022/06/29 05:10:33;;;;;;;8.10;7.00;;;;;;;30.09;46.66;94843.53;5090356;28;20676;-75
2022/06/29 05:13:00;;;;;;;9.48;7.60;;;;;;;29.88;44.90;94833.03;5089698;28;20725;-76
2022/06/29 05:15:26;;;;;;;9.73;7.22;;;;;;;30.33;44.51;94830.78;5089136;28;20234;-75
2022/06/29 05:17:53;;;;;;;9.57;6.90;;;;;;;31.28;42.29;94830.66;5089964;28;20704;-76
2022/06/29 05:20:21;;;;;;;8.00;6.85;;;;;;;32.10;41.46;94825.47;5090494;28;20213;-76
2022/06/29 05:22:49;;;;;;;8.23;7.43;;;;;;;31.91;41.28;94823.84;5090484;28;20257;-76
2022/06/29 05:25:16;;;;;;;9.27;7.65;;;;;;;31.55;42.03;94828.03;5088880;28;20663;-76
2022/06/29 05:27:43;;;;;;;8.63;7.30;;;;;;;32.87;40.07;94815.03;5089486;28;20763;-76
2022/06/29 05:30:10;;;;;;;10.73;7.95;;;;;;;32.04;41.27;94827.31;5089685;28;20222;-76
2022/06/29 05:32:37;;;;;;;9.05;7.30;;;;;;;30.54;43.34;94825.69;5093475;28;20202;-76
2022/06/29 05:35:05;;;;;;;8.45;7.35;;;;;;;31.54;41.33;94831.28;5092863;28;20221;-76
2022/06/29 05:37:32;;;;;;;11.93;7.90;;;;;;;30.85;42.96;94826.59;5093873;28;20247;-76
2022/06/29 05:40:01;;;;;;;8.02;7.05;;;;;;;32.24;41.19;94824.94;5093328;28;20237;-76
2022/06/29 05:42:28;;;;;;;9.75;7.75;;;;;;;33.11;39.10;94827.19;5092900;28;20226;-76
2022/06/29 05:44:55;;;;;;;9.10;6.82;;;;;;;33.67;37.77;94833.50;5092707;28;20300;-76
2022/06/29 05:47:22;;;;;;;8.60;7.70;;;;;;;32.66;39.38;94825.16;5093760;28;20206;-77
2022/06/29 05:49:49;;;;;;;9.80;7.90;;;;;;;30.36;43.76;94841.03;5093580;28;20709;-76
2022/06/29 05:52:16;;;;;;;8.32;7.20;;;;;;;29.91;44.98;94841.31;5093636;28;20222;-77
2022/06/29 05:54:42;;;;;;;9.77;8.15;;;;;;;28.85;47.39;94847.97;5093074;28;20766;-77
2022/06/29 05:57:11;;;;;;;9.20;7.78;;;;;;;29.24;46.55;94857.28;5093623;28;20222;-77
2022/06/29 05:59:38;;;;;;;13.30;8.13;;;;;;;28.95;46.66;94860.88;5093568;28;20573;-77
2022/06/29 06:02:05;;;;;;;9.80;8.20;;;;;;;28.81;47.66;94869.63;5093782;28;20283;-78
2022/06/29 06:04:32;;;;;;;10.25;8.27;;;;;;;30.35;44.69;94855.47;5092656;28;20223;-78
2022/06/29 06:06:59;;;;;;;10.65;7.88;;;;;;;29.77;45.83;94866.88;5093387;28;20305;-77
2022/06/29 06:09:27;;;;;;;10.88;8.50;;;;;;;28.71;48.51;94864.28;5093534;28;20279;-77
2022/06/29 06:11:54;;;;;;;11.13;8.27;;;;;;;29.37;46.23;94860.09;5093627;28;20232;-78
2022/06/29 06:14:24;;;;;;;11.75;8.55;;;;;;;30.52;44.00;94853.31;5092761;28;20322;-75
2022/06/29 06:16:50;;;;;;;10.77;8.15;;;;;;;32.45;40.35;94840.84;5092746;28;20624;-77
2022/06/29 06:19:17;;;;;;;10.02;7.70;;;;;;;33.00;39.32;94849.34;5093085;28;20661;-76
2022/06/29 06:21:44;;;;;;;11.73;8.45;;;;;;;31.76;41.26;94860.06;5093233;28;20206;-77
2022/06/29 06:24:11;;;;;;;10.23;7.57;;;;;;;32.60;40.11;94843.06;5092904;28;20255;-77
2022/06/29 06:26:38;;;;;;;10.75;8.20;;;;;;;32.40;39.92;94841.47;5092651;28;20272;-76
2022/06/29 06:29:05;;;;;;;9.52;7.88;;;;;;;31.21;42.30;94839.31;5092840;28;20223;-76
2022/06/29 06:31:34;;;;;;;11.05;8.25;;;;;;;32.18;41.56;94835.16;5092831;28;20661;-77
2022/06/29 06:34:01;;;;;;;10.43;7.18;;;;;;;32.42;39.86;94832.59;5092369;28;20723;-78
2022/06/29 06:36:28;;;;;;;9.77;7.45;;;;;;;32.64;40.12;94821.25;5092068;28;20221;-78
2022/06/29 06:38:55;;;;;;;9.93;7.47;;;;;;;32.50;40.51;94822.66;5092625;28;20692;-78
2022/06/29 06:41:25;;;;;;;9.25;7.32;;;;;;;33.84;38.42;94831.94;5091759;28;20323;-78
2022/06/29 06:43:52;;;;;;;9.18;7.95;;;;;;;31.98;40.03;94820.78;5092262;28;20562;-78
2022/06/29 06:46:19;;;;;;;10.85;7.88;;;;;;;32.19;40.31;94825.53;5091802;28;20276;-77
2022/06/29 06:48:49;;;;;;;9.25;7.47;;;;;;;32.84;39.14;94830.00;5092076;28;20226;-79
2022/06/29 06:51:15;;;;;;;12.50;8.57;;;;;;;30.82;42.76;94833.09;5078493;28;20210;-76
2022/06/29 06:53:42;;;;;;;10.40;8.27;;;;;;;33.11;38.78;94821.56;5091785;28;20218;-76
2022/06/29 06:56:09;;;;;;;12.45;8.20;;;;;;;33.75;37.34;94818.66;5078582;28;20299;-76
2022/06/29 06:58:36;;;;;;;9.32;7.30;;;;;;;33.21;38.97;94816.75;5092382;28;20222;-77
2022/06/29 07:01:04;;;;;;;10.80;7.72;;;;;;;33.37;37.89;94821.25;5089821;28;20277;-77
2022/06/29 07:03:32;;;;;;;10.10;7.55;;;;;;;33.67;38.51;94811.81;5091361;28;20314;-76
2022/06/29 07:06:01;;;;;;;11.90;8.00;;;;;;;33.33;38.43;94820.66;5092079;28;20282;-75
2022/06/29 07:08:27;;;;;;;12.27;7.55;;;;;;;33.09;39.42;94823.28;5092002;28;20260;-78
2022/06/29 07:10:55;;;;;;;8.88;7.32;;;;;;;32.41;39.20;94817.00;5092121;28;20211;-78
2022/06/29 07:13:22;;;;;;;10.00;6.85;;;;;;;32.59;39.75;94816.25;5091553;28;20343;-77
2022/06/29 07:15:48;;;;;;;9.18;7.35;;;;;;;32.93;38.91;94816.00;5090505;28;20292;-76
2022/06/29 07:18:15;;;;;;;8.13;6.72;;;;;;;30.27;42.19;94826.97;5083191;28;20219;-78
2022/06/29 07:20:42;;;;;;;9.02;7.32;;;;;;;31.16;41.88;94823.13;5090722;28;20635;-79
2022/06/29 07:23:10;;;;;;;10.15;7.25;;;;;;;30.32;43.64;94822.84;5091729;28;20228;-79
2022/06/29 07:25:37;;;;;;;9.18;6.72;;;;;;;31.45;41.35;94818.00;5091147;28;20238;-79
2022/06/29 07:28:05;;;;;;;9.70;6.80;;;;;;;31.74;41.04;94812.88;5091587;28;20248;-79
2022/06/29 07:30:32;;;;;;;9.55;7.25;;;;;;;30.23;43.54;94815.13;5091370;28;20194;-80
2022/06/29 07:32:59;;;;;;;9.27;6.95;;;;;;;31.77;41.74;94811.19;5091561;28;20271;-79
2022/06/29 07:35:26;;;;;;;8.82;6.97;;;;;;;32.05;41.11;94820.47;5091974;28;20307;-80
2022/06/29 07:37:53;;;;;;;8.48;6.93;;;;;;;31.38;41.51;94823.88;5091340;28;20222;-85
2022/06/29 07:40:22;;;;;;;9.65;7.53;;;;;;;31.44;42.69;94810.81;5091189;28;20725;-81
2022/06/29 07:42:49;;;;;;;9.07;7.15;;;;;;;31.63;41.99;94804.09;5084620;28;20554;-81
2022/06/29 07:45:16;;;;;;;10.25;6.65;;;;;;;32.65;41.86;94800.38;5091664;28;20218;-82
2022/06/29 07:47:44;;;;;;;7.82;6.50;;;;;;;32.01;39.84;94808.63;5091729;28;20290;-77
2022/06/29 07:50:12;;;;;;;7.28;6.10;;;;;;;32.53;39.74;94804.84;5090653;28;20202;-80
2022/06/29 07:52:40;;;;;;;11.05;6.22;;;;;;;32.97;38.24;94794.13;5091137;28;20268;-78
2022/06/29 07:55:07;;;;;;;7.18;6.00;;;;;;;33.34;37.77;94805.38;5090196;28;20226;-78
2022/06/29 07:57:36;;;;;;;8.00;5.60;;;;;;;33.36;37.83;94797.22;5091127;28;20609;-88
2022/06/29 08:00:04;;;;;;;7.10;6.25;;;;;;;32.78;38.22;94798.22;5091019;28;20210;-79
2022/06/29 08:02:30;;;;;;;10.38;6.95;;;;;;;32.53;39.39;94793.63;5091229;28;20224;-77
2022/06/29 08:04:58;;;;;;;13.45;6.00;;;;;;;32.57;41.54;94793.47;5091191;28;20206;-77
2022/06/29 08:07:25;;;;;;;8.52;5.45;;;;;;;33.36;39.48;94791.59;5083502;28;20585;-82
2022/06/29 08:09:53;;;;;;;6.28;4.75;;;;;;;33.28;38.77;94790.38;5082588;28;20582;-81
2022/06/29 08:12:19;;;;;;;7.22;5.45;;;;;;;33.18;39.32;94798.81;5092922;28;20222;-83
2022/06/29 08:14:48;;;;;;;8.25;6.68;;;;;;;32.40;40.15;94796.59;5092799;28;20254;-78
2022/06/29 08:17:14;;;;;;;8.75;6.30;;;;;;;31.47;41.64;94793.13;5091327;28;20279;-80
2022/06/29 08:19:41;;;;;;;10.10;6.65;;;;;;;31.19;41.77;94794.19;5090437;28;20233;-81
2022/06/29 08:22:08;;;;;;;8.38;6.18;;;;;;;30.94;42.62;94795.88;5090965;28;20228;-81
2022/06/29 08:24:35;;;;;;;6.55;5.28;;;;;;;30.05;44.97;94798.19;5090869;28;20229;-80
2022/06/29 08:27:02;;;;;;;6.68;5.60;;;;;;;29.11;47.56;94806.25;5090919;28;20194;-80
2022/06/29 08:29:28;;;;;;;6.38;5.20;;;;;;;29.24;47.04;94812.63;5091177;28;20661;-80
2022/06/29 08:31:57;;;;;;;7.93;5.28;;;;;;;30.07;45.23;94801.28;5090814;28;20274;-86
2022/06/29 08:34:24;;;;;;;10.23;5.97;;;;;;;30.42;43.35;94804.13;5094190;28;20213;-86
2022/06/29 08:36:51;;;;;;;5.95;4.60;;;;;;;31.50;41.13;94797.03;5091378;28;20317;-86
2022/06/29 08:39:18;;;;;;;5.88;4.30;;;;;;;30.86;40.74;94799.41;5093875;28;20367;-80
2022/06/29 08:41:45;;;;;;;6.00;4.43;;;;;;;30.57;41.15;94799.63;5090173;28;20263;-81
2022/06/29 08:44:12;;;;;;;4.53;4.10;;;;;;;31.54;39.80;94792.06;5087659;28;20347;-88
2022/06/29 08:46:39;;;;;;;6.40;4.38;;;;;;;31.14;41.30;94792.00;5093634;28;20261;-84
2022/06/29 08:49:07;;;;;;;5.38;4.65;;;;;;;31.40;42.12;94799.00;5085733;28;20210;-79
2022/06/29 08:51:35;;;;;;;4.32;3.63;;;;;;;31.43;38.98;94795.28;5090848;28;20228;-86
2022/06/29 08:54:06;;;;;;;6.15;3.72;;;;;;;31.97;38.15;94796.78;5091211;28;20288;-81
2022/06/29 08:56:35;;;;;;;5.22;3.67;;;;;;;31.44;40.26;94799.63;5090970;28;20232;-82
2022/06/29 08:59:03;;;;;;;3.70;3.33;;;;;;;30.68;41.05;94800.03;5090769;28;20218;-80
2022/06/29 09:01:31;;;;;;;3.78;3.42;;;;;;;30.22;40.18;94802.38;5090441;28;20537;-82
2022/06/29 09:03:58;;;;;;;9.48;4.47;;;;;;;30.20;40.50;94798.47;5090554;28;20226;-83
2022/06/29 09:06:26;;;;;;;4.30;3.55;;;;;;;30.77;40.38;94797.28;5093880;28;20190;-80
2022/06/29 09:08:53;;;;;;;4.43;3.40;;;;;;;30.23;40.75;94795.53;5093856;28;21039;-83
2022/06/29 09:11:21;;;;;;;5.22;3.35;;;;;;;29.94;37.66;94794.91;5093701;28;20210;-84
2022/06/29 09:13:48;;;;;;;4.47;3.42;;;;;;;30.71;37.56;94782.34;5093384;28;20217;-81
2022/06/29 09:16:15;;;;;;;4.03;3.10;;;;;;;30.74;38.18;94787.81;5093850;28;20256;-83
2022/06/29 09:18:43;;;;;;;5.25;3.78;;;;;;;31.07;38.51;94782.59;5089220;28;20320;-83
2022/06/29 09:21:10;;;;;;;3.60;2.92;;;;;;;31.54;38.71;94778.84;5085174;28;20229;-82
2022/06/29 09:23:38;;;;;;;4.05;3.20;;;;;;;32.26;38.38;94780.34;5093211;28;20972;-86
2022/06/29 09:26:05;;;;;;;4.15;3.53;;;;;;;31.88;37.23;94786.31;5094927;28;20230;-84
2022/06/29 09:28:34;;;;;;;9.60;4.00;;;;;;;32.53;36.65;94788.03;5095025;28;20726;-88
2022/06/29 09:31:01;;;;;;;5.50;4.22;;;;;;;31.64;38.36;94786.06;5095585;28;20201;-89
2022/06/29 09:33:30;;;;;;;4.72;3.42;;;;;;;30.96;39.44;94792.63;5096061;28;20220;-89
2022/06/29 09:36:08;;;;;;;6.13;3.72;;;;;;;31.39;39.08;94791.84;5095876;28;20336;-89
2022/06/29 09:38:35;;;;;;;4.07;3.58;;;;;;;31.62;37.97;94782.91;5095726;28;20221;-86
2022/06/29 09:41:06;;;;;;;3.80;3.30;;;;;;;31.42;39.35;94785.31;5095559;28;20214;-83
2022/06/29 09:43:34;;;;;;;4.60;3.47;;;;;;;30.51;39.10;94790.22;5086069;28;20222;-85
2022/06/29 09:46:02;;;;;;;5.35;3.53;;;;;;;30.05;40.72;94787.00;5093491;28;20202;-85
2022/06/29 09:48:30;;;;;;;5.57;3.17;;;;;;;30.03;41.44;94781.84;5096128;28;20573;-82
2022/06/29 09:50:58;;;;;;;4.38;3.17;;;;;;;30.36;40.75;94779.53;5097554;28;20245;-87
2022/06/29 09:53:28;;;;;;;4.40;3.20;;;;;;;30.07;39.11;94778.91;5095194;28;20279;-87
2022/06/29 09:55:57;;;;;;;4.28;2.92;;;;;;;29.69;40.53;94785.31;5096180;28;20210;-83
2022/06/29 09:58:34;;;;;;;5.10;3.50;;;;;;;29.49;41.09;94781.97;5096318;28;20288;-85
2022/06/29 10:03:50;;;;;;;3.33;3.00;;;;;;;29.84;38.99;94765.31;5094884;28;20248;-86
2022/06/29 10:06:18;;;;;;;4.63;3.38;;;;;;;30.38;37.82;94765.88;5095813;28;20226;-89
2022/06/29 10:08:46;;;;;;;5.15;3.30;;;;;;;30.08;39.17;94766.50;5095109;28;20226;-87
2022/06/29 10:14:22;;;;;;;3.53;3.22;;;;;;;30.36;39.64;94779.53;5083976;28;20222;-85
2022/06/29 10:16:57;;;;;;;3.72;3.40;;;;;;;30.79;38.57;94772.44;5094123;28;20718;-88
2022/06/29 10:19:40;;;;;;;4.88;3.88;;;;;;;30.84;39.10;94763.47;5095224;28;20587;-88
2022/06/29 10:22:07;;;;;;;4.13;3.72;;;;;;;30.36;39.10;94757.16;5082319;28;20230;-88
2022/06/29 10:24:37;;;;;;;6.82;3.88;;;;;;;30.98;40.65;94762.94;5093588;28;20202;-87
2022/06/29 10:27:07;;;;;;;4.18;3.30;;;;;;;31.38;37.86;94756.66;5094863;28;20198;-89
2022/06/29 10:29:38;;;;;;;3.47;3.00;;;;;;;31.21;38.13;94758.13;5096052;28;20214;-87
2022/06/29 10:32:22;;;;;;;3.97;3.17;;;;;;;30.49;38.57;94753.53;5095264;28;20650;-86
2022/06/29 10:35:07;;;;;;;3.33;2.85;;;;;;;30.96;37.68;94765.44;5096749;28;20194;-87
2022/06/29 10:37:46;;;;;;;4.10;2.55;;;;;;;30.29;35.80;94746.22;5094345;28;20214;-83
2022/06/29 10:40:17;;;;;;;5.55;2.70;;;;;;;30.59;35.91;94752.41;5093963;28;21051;-84
2022/06/29 10:45:43;;;;;;;3.13;2.80;;;;;;;30.87;36.55;94745.78;5097292;28;20201;-80
2022/06/29 10:48:24;;;;;;;2.88;2.63;;;;;;;30.56;37.17;94753.31;5083125;28;20286;-84
2022/06/29 10:50:51;;;;;;;3.53;2.83;;;;;;;30.22;38.60;94740.88;5094885;28;20222;-86
2022/06/29 10:53:20;;;;;;;3.28;2.95;;;;;;;30.09;37.34;94748.50;5094187;28;20311;-83
2022/06/29 10:55:49;;;;;;;4.13;2.72;;;;;;;29.96;37.55;94739.34;5093443;28;20202;-86
2022/06/29 10:58:17;;;;;;;3.72;3.03;;;;;;;29.98;38.37;94748.09;5093988;28;20230;-86
2022/06/29 11:00:47;;;;;;;3.25;2.88;;;;;;;29.59;37.64;94744.56;5093533;28;21027;-86
2022/06/29 11:03:17;;;;;;;6.25;2.80;;;;;;;29.95;38.17;94749.75;5094100;28;20222;-88
2022/06/29 11:14:02;;;;;;;2.80;2.47;;;;;;;29.95;37.41;94735.00;5092522;28;20225;-88
2022/06/29 11:16:32;;;;;;;4.47;2.50;;;;;;;30.11;36.06;94732.06;5092978;28;20237;-86
2022/06/29 11:18:59;;;;;;;3.08;2.60;;;;;;;30.63;37.07;94719.47;5079624;28;20278;-87
2022/06/29 11:21:28;;;;;;;3.00;2.70;;;;;;;30.54;36.78;94725.81;5092779;28;20203;-87
2022/06/29 11:24:02;;;;;;;2.50;2.30;;;;;;;29.84;33.41;94717.81;5092832;28;20561;-85
2022/06/29 11:26:30;;;;;;;3.17;2.28;;;;;;;29.38;35.87;94710.94;5092070;28;20234;-83
2022/06/29 11:28:58;;;;;;;3.50;2.55;;;;;;;29.63;37.65;94711.72;5091014;28;20205;-87
2022/06/29 11:31:26;;;;;;;2.75;2.50;;;;;;;29.90;36.04;94710.44;5092016;28;20219;-86
2022/06/29 11:33:55;;;;;;;4.65;2.58;;;;;;;30.24;36.15;94707.66;5092323;28;20247;-86
2022/06/29 11:36:24;;;;;;;2.63;2.42;;;;;;;30.81;35.03;94707.66;5092216;28;20313;-85
2022/06/29 11:38:53;;;;;;;2.70;2.50;;;;;;;31.09;34.18;94695.38;5092110;28;20225;-87
2022/06/29 11:41:22;;;;;;;3.35;2.38;;;;;;;30.61;32.75;94694.00;5091854;28;20674;-83
2022/06/29 11:43:58;;;;;;;2.25;2.00;;;;;;;30.72;33.62;94694.38;5091795;28;20315;-85
2022/06/29 11:46:27;;;;;;;2.25;2.05;;;;;;;30.92;33.18;94703.19;5092148;28;20222;-87
2022/06/29 11:51:50;;;;;;;3.22;2.10;;;;;;;30.91;33.18;94693.25;5092025;28;20656;-86
2022/06/29 11:54:17;;;;;;;2.33;2.08;;;;;;;31.05;33.09;94684.31;5091801;28;20277;-87
2022/06/29 11:56:45;;;;;;;2.60;2.25;;;;;;;31.38;33.05;94681.06;5091816;28;20277;-87
2022/06/29 11:59:16;;;;;;;2.70;2.50;;;;;;;31.57;33.70;94679.13;5091568;28;20226;-86